createdAt,value
2022-10-05T00:05:27.319Z,100.00
2022-10-05T00:15:30.493Z,100.00
2022-10-05T00:25:34.905Z,100.00
2022-10-05T00:35:38.040Z,100.00
2022-10-05T00:45:46.403Z,100.00
2022-10-05T00:55:57.923Z,100.00
2022-10-05T01:06:12.988Z,100.00
2022-10-05T01:16:22.303Z,100.00
2022-10-05T01:26:44.862Z,100.00
2022-10-05T01:37:00.300Z,100.00
2022-10-05T01:47:08.885Z,100.00
2022-10-05T01:57:22.335Z,100.00
2022-10-05T02:07:30.074Z,100.00
2022-10-05T02:17:39.488Z,100.00
2022-10-05T02:27:49.682Z,100.00
2022-10-05T02:38:11.858Z,100.00
2022-10-05T02:48:25.935Z,100.00
2022-10-05T02:58:38.198Z,100.00
2022-10-05T03:08:45.824Z,100.00
2022-10-05T03:19:03.744Z,100.00
2022-10-05T03:29:18.225Z,100.00
2022-10-05T03:39:31.751Z,100.00
2022-10-05T03:49:49.119Z,100.00
2022-10-05T04:00:00.790Z,100.00
2022-10-05T04:10:14.454Z,100.00
2022-10-05T04:20:23.928Z,100.00
2022-10-05T04:30:28.226Z,100.00
2022-10-05T04:40:49.183Z,100.00
2022-10-05T04:51:04.107Z,100.00
2022-10-05T05:01:24.391Z,100.00
2022-10-05T05:11:35.259Z,100.00
2022-10-05T05:21:46.769Z,100.00
2022-10-05T05:31:57.870Z,100.00
2022-10-05T05:42:12.958Z,100.00
2022-10-05T05:52:23.458Z,100.00
2022-10-05T06:02:32.897Z,100.00
2022-10-05T06:12:39.607Z,100.00
2022-10-05T06:22:47.136Z,100.00
2022-10-05T06:33:09.230Z,100.00
2022-10-05T06:43:42.614Z,100.00
2022-10-05T06:54:04.083Z,100.00
2022-10-05T07:04:26.998Z,100.00
2022-10-05T07:14:41.144Z,100.00
2022-10-05T07:24:58.373Z,98.51
2022-10-05T07:35:30.643Z,98.49
2022-10-05T07:45:46.991Z,97.54
2022-10-05T07:55:54.846Z,96.55
2022-10-05T08:06:02.702Z,95.80
2022-10-05T08:16:12.718Z,95.56
2022-10-05T08:26:26.001Z,93.65
2022-10-05T08:36:53.026Z,92.42
2022-10-05T08:47:16.347Z,91.49
2022-10-05T08:57:53.594Z,90.65
2022-10-05T09:08:31.168Z,89.95
2022-10-05T09:19:06.417Z,88.27
2022-10-05T09:29:34.287Z,87.43
2022-10-05T09:39:56.739Z,86.31
2022-10-05T09:50:30.820Z,86.38
2022-10-05T10:00:55.563Z,84.83
2022-10-05T10:11:19.473Z,84.08
2022-10-05T10:21:46.923Z,83.92
2022-10-05T10:32:10.870Z,82.19
2022-10-05T10:42:32.520Z,81.67
2022-10-05T10:52:57.664Z,80.42
2022-10-05T11:03:39.175Z,79.38
2022-10-05T11:14:02.754Z,79.22
2022-10-05T11:24:39.003Z,77.97
2022-10-05T11:35:14.489Z,77.85
2022-10-05T11:45:23.471Z,76.24
2022-10-05T11:55:33.956Z,73.74
2022-10-05T12:05:47.664Z,73.81
2022-10-05T12:15:58.720Z,74.80
2022-10-05T12:26:05.052Z,73.70
2022-10-05T12:36:16.089Z,72.06
2022-10-05T12:46:42.506Z,68.87
2022-10-05T12:57:00.769Z,70.11
2022-10-05T13:07:31.017Z,67.87
2022-10-05T13:17:42.320Z,68.07
2022-10-05T13:27:52.739Z,69.11
2022-10-05T13:38:04.489Z,69.59
2022-10-05T13:48:19.463Z,69.58
2022-10-05T13:58:51.658Z,71.12
2022-10-05T14:08:58.316Z,70.39
2022-10-05T14:19:20.249Z,71.95
2022-10-05T14:29:26.343Z,72.23
2022-10-05T14:39:35.700Z,72.65
2022-10-05T14:50:10.840Z,70.68
2022-10-05T15:00:17.417Z,70.55
2022-10-05T15:10:32.403Z,66.63
2022-10-05T15:20:45.683Z,68.98
2022-10-05T15:31:11.386Z,71.52
2022-10-05T15:41:24.829Z,72.01
2022-10-05T15:51:40.928Z,72.45
2022-10-05T16:01:53.088Z,73.01
2022-10-05T16:12:10.319Z,73.88
2022-10-05T16:22:26.500Z,74.87
2022-10-05T16:32:34.887Z,75.66
2022-10-05T16:42:56.370Z,76.36
2022-10-05T16:53:04.887Z,76.86
2022-10-05T17:03:21.200Z,77.14
2022-10-05T17:13:52.229Z,78.02
2022-10-05T17:24:02.133Z,78.26
2022-10-05T17:34:26.399Z,79.07
2022-10-05T17:44:30.927Z,79.78
2022-10-05T17:55:07.684Z,79.81
2022-10-05T18:05:23.375Z,80.07
2022-10-05T18:15:48.834Z,80.99
2022-10-05T18:25:57.427Z,81.49
2022-10-05T18:36:08.197Z,82.56
2022-10-05T18:46:24.319Z,82.40
2022-10-05T18:56:35.113Z,83.24
2022-10-05T19:06:49.610Z,83.27
2022-10-05T19:16:59.994Z,84.08
2022-10-05T19:27:10.719Z,84.51
2022-10-05T19:37:20.932Z,87.55
2022-10-05T19:47:40.882Z,98.79
2022-10-05T19:57:48.784Z,100.00
2022-10-05T20:07:53.214Z,100.00
2022-10-05T20:18:13.711Z,100.00
2022-10-05T20:28:31.671Z,100.00
2022-10-05T20:38:40.624Z,100.00
2022-10-05T20:48:45.943Z,100.00
2022-10-05T20:58:49.045Z,100.00
2022-10-05T21:08:54.363Z,100.00
2022-10-05T21:18:57.402Z,100.00
2022-10-05T21:29:03.242Z,100.00
2022-10-05T21:39:06.286Z,100.00
2022-10-05T21:49:10.976Z,100.00
2022-10-05T21:59:18.750Z,100.00
2022-10-05T22:09:23.118Z,100.00
2022-10-05T22:19:26.147Z,100.00
2022-10-05T22:29:30.654Z,100.00
2022-10-05T22:39:34.134Z,100.00
2022-10-05T22:49:38.398Z,100.00
2022-10-05T22:59:41.338Z,100.00
2022-10-05T23:09:45.669Z,100.00
2022-10-05T23:19:48.573Z,100.00
2022-10-05T23:29:52.914Z,100.00
2022-10-05T23:39:55.841Z,100.00
2022-10-05T23:50:00.646Z,100.00
